Main page
METAR-TAF:

METAR-TAF

Airports :

Las Cruces International Airport

Las Cruces, New Mexico, United States

latitude: 32-17-22N, longitude: 106-55-19W, elevation: 1358 m

Current weather observation

The report was made 8 minutes ago, at 03:35 UTC
Wind 5 kt from the South
Temperature 12°C
Humidity 71%
Pressure 1021 hPa
Visibility: 16.1 km
Clear sky

METAR: KLRU 010335Z AUTO 18005KT 10SM CLR 12/07 A3014 RMK AO2 T01150065

Time: 20:43 (03:43 UTC)

Forecast

The report was made 4 hours and 9 minutes ago, at 23:34 UTC
Forecast valid from 01 at 00 UTC to 01 at 24 UTC
Wind 7 kt from the West
Visibility: 10 km
Broken clouds at a height of 3500 ft
From 01 at 0200 UTC
Wind 6 kt from the West
Visibility: 10 km
Scattered clouds at a height of 25000 ft
From 01 at 1900 UTC
Wind 12 kt from the West/Southwest with gusts up to 18 kt
Visibility: 10 km
Broken clouds at a height of 25000 ft

TAF: KLRU 292334Z 0100/0124 28007KT P6SM BKN035 FM010200 27006KT P6SM SCT250 FM011900 25012G18KT P6SM BKN250

Weather observations and forecasts of more than 4000 airports (METAR and TAF reports).

The available stations are represented by yellow and red dots on the map.

Hover mouse over dot to see the name of the station.

Then click to see weather observations and forecasts.

To change the map : click on the green buttons with a black cross to zoom in, on the green button with a dash to zoom out, or on the green arrows for adjacent maps.


METAR-TAF: